createdAt,value
2023-05-22T07:14:50.096Z,96597.40
2023-05-22T07:17:20.655Z,96601.00
2023-05-22T07:19:49.003Z,96598.60
2023-05-22T07:22:17.030Z,96599.40
2023-05-22T07:24:46.550Z,96602.00
2023-05-22T07:27:15.075Z,96596.20
2023-05-22T07:29:43.226Z,96597.20
2023-05-22T07:32:11.815Z,96595.20
2023-05-22T07:34:40.032Z,96592.40
2023-05-22T07:37:11.140Z,96595.60
2023-05-22T07:39:39.412Z,96591.40
2023-05-22T07:42:07.863Z,96592.80
2023-05-22T07:44:39.523Z,96594.00
2023-05-22T07:47:08.056Z,96599.20
2023-05-22T07:49:36.481Z,96595.80
2023-05-22T07:52:04.742Z,96596.80
2023-05-22T07:54:33.193Z,96599.00
2023-05-22T07:57:03.702Z,96602.00
2023-05-22T07:59:35.962Z,96599.20
2023-05-22T08:02:04.287Z,96597.60
2023-05-22T08:04:32.674Z,96600.40
2023-05-22T08:07:01.966Z,96599.20
2023-05-22T08:09:30.192Z,96598.20
2023-05-22T08:11:58.187Z,96596.00
2023-05-22T08:14:26.307Z,96600.40
2023-05-22T08:16:54.473Z,96599.40
2023-05-22T08:19:22.661Z,96602.60
2023-05-22T08:21:58.360Z,96596.00
2023-05-22T08:24:30.685Z,96601.00
2023-05-22T08:26:58.890Z,96595.60
2023-05-22T08:29:27.253Z,96593.40
2023-05-22T08:31:57.082Z,96592.00
2023-05-22T08:34:25.860Z,96585.80
2023-05-22T08:36:53.994Z,96588.20
2023-05-22T08:39:22.009Z,96590.60
2023-05-22T08:41:49.973Z,96587.00
2023-05-22T08:44:19.868Z,96585.40
2023-05-22T08:46:48.670Z,96587.00
2023-05-22T08:49:16.687Z,96583.40
2023-05-22T08:51:46.708Z,96579.20
2023-05-22T08:54:14.981Z,96573.60
2023-05-22T08:56:55.776Z,96577.00
2023-05-22T08:59:25.118Z,96576.80
2023-05-22T09:01:53.688Z,96580.80
2023-05-22T09:04:23.812Z,96576.40
2023-05-22T09:06:52.270Z,96575.00
2023-05-22T09:09:20.752Z,96579.40
2023-05-22T09:11:49.758Z,96578.80
2023-05-22T09:14:18.649Z,96572.60
2023-05-22T09:16:47.740Z,96575.20
2023-05-22T09:19:16.218Z,96575.00
2023-05-22T09:21:48.166Z,96575.20
2023-05-22T09:24:16.540Z,96577.60
2023-05-22T09:26:44.720Z,96576.40
2023-05-22T09:29:12.763Z,96573.80
2023-05-22T09:31:42.445Z,96574.80
2023-05-22T09:34:11.225Z,96569.00
2023-05-22T09:36:39.206Z,96562.80
2023-05-22T09:39:07.329Z,96568.40
2023-05-22T09:41:38.283Z,96566.00
2023-05-22T09:44:14.240Z,96561.20
2023-05-22T09:46:44.748Z,96558.80
2023-05-22T09:49:16.106Z,96559.60
2023-05-22T09:51:48.206Z,96563.20
2023-05-22T09:54:17.669Z,96561.40
2023-05-22T09:56:48.818Z,96559.20
2023-05-22T09:59:26.832Z,96557.00
2023-05-22T10:01:55.363Z,96554.00
2023-05-22T10:04:23.720Z,96562.40
2023-05-22T10:06:53.841Z,96559.00
2023-05-22T10:09:24.886Z,96557.60
2023-05-22T10:11:53.813Z,96556.80
2023-05-22T10:14:22.312Z,96553.60
2023-05-22T10:16:51.553Z,96551.80
2023-05-22T10:19:20.567Z,96552.40
2023-05-22T10:21:48.707Z,96549.40
2023-05-22T10:24:16.777Z,96543.00
2023-05-22T10:26:44.741Z,96551.20
2023-05-22T10:29:25.811Z,96551.40
2023-05-22T10:31:56.796Z,96548.20
2023-05-22T10:34:42.550Z,96547.80
2023-05-22T10:37:32.452Z,96550.20
2023-05-22T10:40:13.530Z,96554.00
2023-05-22T10:42:41.636Z,96554.20
2023-05-22T10:45:10.727Z,96544.60
2023-05-22T10:47:38.927Z,96546.20
2023-05-22T10:50:11.656Z,96543.20
2023-05-22T10:52:40.226Z,96535.20
2023-05-22T10:55:09.342Z,96538.60
2023-05-22T10:57:38.699Z,96533.20
2023-05-22T11:00:07.992Z,96531.40
2023-05-22T11:02:41.443Z,96532.80
2023-05-22T11:05:21.717Z,96535.80
2023-05-22T11:07:49.950Z,96534.60
2023-05-22T11:10:27.808Z,96529.20
2023-05-22T11:13:11.943Z,96527.00
2023-05-22T11:15:44.255Z,96526.40
2023-05-22T11:18:12.944Z,96524.20
2023-05-22T11:20:41.644Z,96524.20
2023-05-22T11:23:10.960Z,96518.00
2023-05-22T11:25:41.417Z,96523.60
2023-05-22T11:28:11.634Z,96519.80
2023-05-22T11:30:39.802Z,96515.00
2023-05-22T11:33:08.189Z,96513.40
2023-05-22T11:35:36.922Z,96518.60
2023-05-22T11:38:06.288Z,96520.20
2023-05-22T11:40:34.310Z,96517.20
2023-05-22T11:43:04.200Z,96510.20
2023-05-22T11:45:32.229Z,96506.60
2023-05-22T11:48:00.417Z,96509.80
2023-05-22T11:50:41.888Z,96504.00
2023-05-22T11:53:11.358Z,96502.60
2023-05-22T11:55:39.375Z,96503.60
2023-05-22T11:58:07.460Z,96496.40
2023-05-22T12:00:35.561Z,96510.60
2023-05-22T12:03:04.250Z,96502.00
2023-05-22T12:05:32.717Z,96498.20
2023-05-22T12:08:00.734Z,96496.20
2023-05-22T12:10:28.930Z,96497.40
2023-05-22T12:12:56.847Z,96493.20
2023-05-22T12:15:25.674Z,96495.60
2023-05-22T12:17:56.924Z,96496.40
2023-05-22T12:20:30.781Z,96496.60
2023-05-22T12:23:00.029Z,96501.40
2023-05-22T12:25:34.178Z,96494.20
2023-05-22T12:28:02.331Z,96499.60
2023-05-22T12:30:40.017Z,96492.60
2023-05-22T12:33:17.584Z,96495.40
2023-05-22T12:35:46.053Z,96495.20
2023-05-22T12:38:14.522Z,96492.40
2023-05-22T12:40:42.793Z,96494.80
2023-05-22T12:43:11.480Z,96489.40
2023-05-22T12:45:42.515Z,96490.40
2023-05-22T12:48:10.658Z,96490.20
2023-05-22T12:50:39.065Z,96482.00
2023-05-22T12:53:07.268Z,96484.60
2023-05-22T12:55:36.028Z,96484.80
2023-05-22T12:58:04.556Z,96483.80
2023-05-22T13:00:32.698Z,96478.40
2023-05-22T13:03:01.274Z,96477.40
2023-05-22T13:05:29.327Z,96471.80
2023-05-22T13:07:57.451Z,96473.40
2023-05-22T13:10:25.438Z,96474.20
2023-05-22T13:12:53.483Z,96474.00
2023-05-22T13:15:21.731Z,96472.00
2023-05-22T13:17:50.155Z,96475.20
2023-05-22T13:20:19.040Z,96471.40
2023-05-22T13:22:47.016Z,96470.00
2023-05-22T13:25:15.103Z,96469.60
2023-05-22T13:27:43.328Z,96471.40
2023-05-22T13:30:11.755Z,96471.60
2023-05-22T13:32:39.896Z,96463.40
2023-05-22T13:35:08.783Z,96467.00
2023-05-22T13:37:37.102Z,96458.60
2023-05-22T13:40:06.548Z,96459.60
2023-05-22T13:42:34.670Z,96458.20
2023-05-22T13:45:04.144Z,96451.80
2023-05-22T13:47:32.327Z,96453.20
2023-05-22T13:50:00.735Z,96449.20
2023-05-22T13:52:28.901Z,96452.00
2023-05-22T13:54:56.919Z,96451.40
2023-05-22T13:57:24.911Z,96448.80
2023-05-22T13:59:53.181Z,96444.40
2023-05-22T14:02:21.295Z,96441.80
2023-05-22T14:04:51.578Z,96437.40
2023-05-22T14:07:19.854Z,96436.40
2023-05-22T14:09:47.956Z,96441.40
2023-05-22T14:12:16.060Z,96433.60
2023-05-22T14:14:44.098Z,96437.00
2023-05-22T14:17:12.341Z,96432.00
2023-05-22T14:19:40.663Z,96432.20
2023-05-22T14:22:08.816Z,96433.20
2023-05-22T14:24:36.965Z,96427.00
2023-05-22T14:27:05.649Z,96424.80
2023-05-22T14:29:33.837Z,96423.80
2023-05-22T14:32:05.847Z,96424.00
2023-05-22T14:34:33.994Z,96429.20
2023-05-22T14:37:02.145Z,96428.20
2023-05-22T14:39:30.416Z,96423.20
2023-05-22T14:41:58.749Z,96417.80
2023-05-22T14:44:26.746Z,96413.20
2023-05-22T14:46:55.121Z,96408.80
2023-05-22T14:49:23.419Z,96412.40
2023-05-22T14:51:51.800Z,96409.00
2023-05-22T14:54:20.595Z,96406.80
2023-05-22T14:56:48.655Z,96411.80
2023-05-22T14:59:17.067Z,96409.60
2023-05-22T15:01:50.249Z,96407.60
2023-05-22T15:04:18.560Z,96405.80
2023-05-22T15:06:46.809Z,96410.40
2023-05-22T15:09:15.175Z,96405.60
2023-05-22T15:11:46.565Z,96408.20
2023-05-22T15:14:15.612Z,96405.00
2023-05-22T15:16:44.394Z,96406.00
2023-05-22T15:19:12.837Z,96407.40
2023-05-22T15:21:42.234Z,96409.20
2023-05-22T15:24:10.549Z,96408.20
2023-05-22T15:26:38.629Z,96412.60
2023-05-22T15:29:06.660Z,96410.20
2023-05-22T15:31:34.944Z,96403.20
2023-05-22T15:34:03.129Z,96401.80
2023-05-22T15:36:33.175Z,96403.40
2023-05-22T15:39:01.248Z,96398.00
2023-05-22T15:41:29.337Z,96399.20
2023-05-22T15:43:57.487Z,96395.00
2023-05-22T15:46:25.620Z,96393.80
2023-05-22T15:48:54.561Z,96392.60
2023-05-22T15:51:22.630Z,96384.40
2023-05-22T15:53:51.036Z,96378.20
2023-05-22T15:56:19.079Z,96375.80
2023-05-22T15:58:47.242Z,96369.40
2023-05-22T16:01:15.631Z,96369.40
2023-05-22T16:03:43.911Z,96372.40
2023-05-22T16:06:12.000Z,96372.80
2023-05-22T16:08:40.046Z,96372.80
2023-05-22T16:11:08.621Z,96372.40
2023-05-22T16:13:37.116Z,96368.60
2023-05-22T16:16:06.276Z,96367.00
2023-05-22T16:18:34.306Z,96369.00
2023-05-22T16:21:03.688Z,96371.60
2023-05-22T16:23:31.840Z,96365.20
2023-05-22T16:26:00.085Z,96366.40
2023-05-22T16:28:28.513Z,96369.00
2023-05-22T16:30:56.624Z,96369.60
2023-05-22T16:33:25.000Z,96366.60
2023-05-22T16:35:53.251Z,96361.40
2023-05-22T16:38:21.412Z,96359.20
2023-05-22T16:40:49.442Z,96361.60
2023-05-22T16:43:17.763Z,96362.40
2023-05-22T16:45:47.813Z,96362.40
2023-05-22T16:48:16.487Z,96369.00
2023-05-22T16:50:46.964Z,96369.40
2023-05-22T16:53:17.532Z,96370.40
2023-05-22T16:55:45.808Z,96371.20
2023-05-22T16:58:14.154Z,96371.80
2023-05-22T17:00:42.642Z,96373.60
2023-05-22T17:03:12.166Z,96370.00
2023-05-22T17:05:41.221Z,96369.60
2023-05-22T17:08:09.518Z,96371.20
2023-05-22T17:10:37.521Z,96373.20
2023-05-22T17:13:05.809Z,96376.00
2023-05-22T17:15:34.072Z,96375.60
2023-05-22T17:18:02.100Z,96381.00
2023-05-22T17:20:30.185Z,96385.00
2023-05-22T17:22:58.209Z,96391.20
2023-05-22T17:25:26.551Z,96389.60
2023-05-22T17:27:54.730Z,96390.20
2023-05-22T17:30:22.742Z,96389.80
2023-05-22T17:32:53.718Z,96393.00
2023-05-22T17:35:21.710Z,96388.00
2023-05-22T17:37:49.828Z,96394.40
2023-05-22T17:40:18.284Z,96388.40
2023-05-22T17:42:47.055Z,96389.40
2023-05-22T17:45:15.232Z,96395.60
2023-05-22T17:47:43.408Z,96398.60
2023-05-22T17:50:12.087Z,96401.40
2023-05-22T17:52:41.293Z,96399.60
2023-05-22T17:55:09.420Z,96399.00
2023-05-22T17:57:37.646Z,96402.40
2023-05-22T18:00:10.253Z,96402.00
2023-05-22T18:02:41.204Z,96409.40
2023-05-22T18:05:10.258Z,96410.60
2023-05-22T18:07:38.395Z,96411.00
2023-05-22T18:10:07.040Z,96410.00
2023-05-22T18:12:36.702Z,96414.80
2023-05-22T18:15:09.704Z,96418.60
2023-05-22T18:17:38.960Z,96416.60
2023-05-22T18:20:08.619Z,96417.60
2023-05-22T18:22:37.438Z,96414.40
2023-05-22T18:25:09.280Z,96418.60
2023-05-22T18:27:37.306Z,96425.60
2023-05-22T18:30:06.203Z,96426.00
2023-05-22T18:32:34.616Z,96425.80
2023-05-22T18:35:05.759Z,96423.60
2023-05-22T18:37:33.691Z,96429.20
2023-05-22T18:40:01.725Z,96434.80
2023-05-22T18:42:29.990Z,96435.80
2023-05-22T18:44:58.830Z,96434.60
2023-05-22T18:47:27.005Z,96435.00
2023-05-22T18:49:55.041Z,96441.80
2023-05-22T18:52:23.746Z,96442.80
2023-05-22T18:54:51.899Z,96448.00
2023-05-22T18:57:21.777Z,96448.20
2023-05-22T18:59:50.083Z,96446.00
2023-05-22T19:02:21.299Z,96443.80
2023-05-22T19:04:50.814Z,96447.20
2023-05-22T19:07:19.024Z,96446.00
2023-05-22T19:09:47.150Z,96445.20
2023-05-22T19:12:15.331Z,96448.20
2023-05-22T19:14:43.334Z,96449.20
2023-05-22T19:17:12.221Z,96451.80
2023-05-22T19:19:40.533Z,96457.40
2023-05-22T19:22:08.649Z,96453.60
2023-05-22T19:24:36.723Z,96457.20
2023-05-22T19:27:04.815Z,96463.60
2023-05-22T19:29:32.919Z,96462.60
2023-05-22T19:32:00.867Z,96468.20
2023-05-22T19:34:28.940Z,96468.00
2023-05-22T19:36:57.982Z,96465.60
2023-05-22T19:39:26.136Z,96461.20
2023-05-22T19:41:54.704Z,96471.60
2023-05-22T19:44:22.869Z,96466.20
2023-05-22T19:46:50.972Z,96472.20
2023-05-22T19:49:19.080Z,96470.80
2023-05-22T19:51:47.086Z,96469.60
2023-05-22T19:54:15.358Z,96469.60
2023-05-22T19:56:43.330Z,96468.40
2023-05-22T19:59:11.428Z,96471.00
2023-05-22T20:01:39.474Z,96472.40
2023-05-22T20:04:07.933Z,96468.20
2023-05-22T20:06:35.976Z,96470.00
2023-05-22T20:09:05.919Z,96468.60
2023-05-22T20:11:33.967Z,96469.80
2023-05-22T20:14:02.624Z,96466.80
2023-05-22T20:16:30.673Z,96464.00
2023-05-22T20:18:58.796Z,96459.20
2023-05-22T20:21:27.454Z,96457.60
2023-05-22T20:23:55.802Z,96462.60
2023-05-22T20:26:23.969Z,96463.00
2023-05-22T20:28:52.175Z,96464.80
2023-05-22T20:31:20.229Z,96465.20
2023-05-22T20:33:48.393Z,96466.20
2023-05-22T20:36:16.671Z,96462.80
2023-05-22T20:38:44.743Z,96458.40
2023-05-22T20:41:13.083Z,96458.40
2023-05-22T20:43:43.580Z,96462.20
2023-05-22T20:46:12.696Z,96459.00
2023-05-22T20:48:46.880Z,96456.60
2023-05-22T20:51:21.206Z,96456.80
2023-05-22T20:53:50.289Z,96455.20
2023-05-22T20:56:18.319Z,96457.60
2023-05-22T20:58:46.293Z,96459.60
2023-05-22T21:01:14.410Z,96459.40
2023-05-22T21:03:42.473Z,96468.20
2023-05-22T21:06:10.687Z,96490.60
2023-05-22T21:08:38.821Z,96501.80
2023-05-22T21:11:07.573Z,96509.20
2023-05-22T21:13:35.636Z,96493.60
2023-05-22T21:16:03.833Z,96496.60
2023-05-22T21:18:31.919Z,96499.20
2023-05-22T21:21:00.128Z,96503.60
2023-05-22T21:23:28.208Z,96500.00
2023-05-22T21:25:56.240Z,96496.60
2023-05-22T21:28:24.485Z,96490.20
2023-05-22T21:30:52.469Z,96485.00
2023-05-22T21:33:20.765Z,96479.60
2023-05-22T21:35:49.191Z,96480.00
2023-05-22T21:38:17.468Z,96472.60
2023-05-22T21:40:45.880Z,96471.40
2023-05-22T21:43:13.964Z,96464.20
2023-05-22T21:45:41.998Z,96461.60
2023-05-22T21:48:10.110Z,96459.60
2023-05-22T21:50:38.374Z,96458.40
2023-05-22T21:53:06.803Z,96459.80
2023-05-22T21:55:36.169Z,96465.60
2023-05-22T21:58:04.265Z,96460.20
2023-05-22T22:00:32.385Z,96464.60
2023-05-22T22:03:00.519Z,96461.40
2023-05-22T22:05:28.787Z,96459.00
2023-05-22T22:07:56.807Z,96466.20
2023-05-22T22:10:24.787Z,96465.20
2023-05-22T22:12:52.817Z,96460.20
2023-05-22T22:15:21.863Z,96465.60
2023-05-22T22:17:50.286Z,96462.80
2023-05-22T22:20:24.763Z,96467.60
2023-05-22T22:22:59.077Z,96466.80
2023-05-22T22:25:27.317Z,96461.40
2023-05-22T22:27:55.708Z,96464.20
2023-05-22T22:30:23.792Z,96464.80
2023-05-22T22:32:52.202Z,96465.20
2023-05-22T22:35:20.705Z,96473.40
2023-05-22T22:37:48.799Z,96475.20
2023-05-22T22:40:16.894Z,96476.00
2023-05-22T22:42:44.925Z,96474.40
2023-05-22T22:45:12.971Z,96473.40
2023-05-22T22:47:41.061Z,96475.60
2023-05-22T22:50:10.116Z,96483.60
2023-05-22T22:52:38.376Z,96490.00
2023-05-22T22:55:07.273Z,96490.80
2023-05-22T22:57:36.249Z,96487.00
2023-05-22T23:00:05.673Z,96486.40
2023-05-22T23:02:33.854Z,96485.40
2023-05-22T23:05:02.069Z,96483.20
2023-05-22T23:07:30.380Z,96488.60
2023-05-22T23:09:58.368Z,96487.40
2023-05-22T23:12:26.527Z,96491.60
2023-05-22T23:14:55.598Z,96489.80
2023-05-22T23:17:23.645Z,96488.00
2023-05-22T23:19:52.009Z,96489.60
2023-05-22T23:22:20.036Z,96491.80
2023-05-22T23:24:48.062Z,96488.00
2023-05-22T23:27:16.042Z,96485.00
2023-05-22T23:29:44.109Z,96483.40
2023-05-22T23:32:14.568Z,96481.20
2023-05-22T23:34:43.288Z,96478.00
2023-05-22T23:37:11.314Z,96476.40
2023-05-22T23:39:39.514Z,96482.60
2023-05-22T23:42:09.894Z,96479.00
2023-05-22T23:44:38.016Z,96469.80
2023-05-22T23:47:06.734Z,96477.20
2023-05-22T23:49:35.481Z,96470.40
2023-05-22T23:52:03.963Z,96473.00
2023-05-22T23:54:31.995Z,96473.20
2023-05-22T23:57:00.209Z,96466.80
2023-05-22T23:59:28.208Z,96476.80
